sensor_id;sensor_type;location;lat;lon;timestamp;P1;durP1;ratioP1;P2;durP2;ratioP2
28180;SDS011;15464;50.988;10.318;2023-02-10T00:01:14;33.22;;;21.55;;
28180;SDS011;15464;50.988;10.318;2023-02-10T00:03:43;33.67;;;21.48;;
28180;SDS011;15464;50.988;10.318;2023-02-10T00:06:10;37.85;;;21.05;;
28180;SDS011;15464;50.988;10.318;2023-02-10T00:08:38;35.60;;;21.33;;
28180;SDS011;15464;50.988;10.318;2023-02-10T00:11:07;37.03;;;21.65;;
28180;SDS011;15464;50.988;10.318;2023-02-10T00:13:36;33.47;;;21.17;;
28180;SDS011;15464;50.988;10.318;2023-02-10T00:16:05;36.17;;;21.67;;
28180;SDS011;15464;50.988;10.318;2023-02-10T00:18:34;36.90;;;22.05;;
28180;SDS011;15464;50.988;10.318;2023-02-10T00:21:11;37.25;;;21.35;;
28180;SDS011;15464;50.988;10.318;2023-02-10T00:23:40;36.78;;;22.27;;
28180;SDS011;15464;50.988;10.318;2023-02-10T00:26:08;33.85;;;20.63;;
28180;SDS011;15464;50.988;10.318;2023-02-10T00:28:37;47.53;;;27.95;;
28180;SDS011;15464;50.988;10.318;2023-02-10T00:31:08;38.67;;;23.83;;
28180;SDS011;15464;50.988;10.318;2023-02-10T00:33:36;39.35;;;23.23;;
28180;SDS011;15464;50.988;10.318;2023-02-10T00:36:06;47.92;;;28.80;;
28180;SDS011;15464;50.988;10.318;2023-02-10T00:38:35;37.70;;;22.67;;
28180;SDS011;15464;50.988;10.318;2023-02-10T00:41:05;36.17;;;22.38;;
28180;SDS011;15464;50.988;10.318;2023-02-10T00:43:34;39.00;;;23.33;;
28180;SDS011;15464;50.988;10.318;2023-02-10T00:46:00;35.30;;;21.25;;
28180;SDS011;15464;50.988;10.318;2023-02-10T00:48:27;33.28;;;21.55;;
28180;SDS011;15464;50.988;10.318;2023-02-10T00:50:54;38.22;;;22.23;;
28180;SDS011;15464;50.988;10.318;2023-02-10T00:53:20;36.80;;;22.27;;
28180;SDS011;15464;50.988;10.318;2023-02-10T00:55:47;37.00;;;22.08;;
28180;SDS011;15464;50.988;10.318;2023-02-10T00:58:14;36.25;;;20.65;;
28180;SDS011;15464;50.988;10.318;2023-02-10T01:00:41;33.85;;;20.63;;
28180;SDS011;15464;50.988;10.318;2023-02-10T01:03:08;32.22;;;21.25;;
28180;SDS011;15464;50.988;10.318;2023-02-10T01:05:35;36.03;;;21.02;;
28180;SDS011;15464;50.988;10.318;2023-02-10T01:08:01;33.33;;;21.00;;
28180;SDS011;15464;50.988;10.318;2023-02-10T01:10:28;36.45;;;22.58;;
28180;SDS011;15464;50.988;10.318;2023-02-10T01:12:55;41.10;;;22.00;;
28180;SDS011;15464;50.988;10.318;2023-02-10T01:15:22;35.85;;;23.08;;
28180;SDS011;15464;50.988;10.318;2023-02-10T01:17:48;36.70;;;21.98;;
28180;SDS011;15464;50.988;10.318;2023-02-10T01:20:15;33.42;;;20.75;;
28180;SDS011;15464;50.988;10.318;2023-02-10T01:22:41;37.45;;;21.80;;
28180;SDS011;15464;50.988;10.318;2023-02-10T01:25:08;35.15;;;21.35;;
28180;SDS011;15464;50.988;10.318;2023-02-10T01:27:35;38.42;;;20.75;;
28180;SDS011;15464;50.988;10.318;2023-02-10T01:30:02;32.60;;;20.77;;
28180;SDS011;15464;50.988;10.318;2023-02-10T01:32:29;36.20;;;21.77;;
28180;SDS011;15464;50.988;10.318;2023-02-10T01:34:55;34.53;;;20.67;;
28180;SDS011;15464;50.988;10.318;2023-02-10T01:37:22;33.28;;;20.63;;
28180;SDS011;15464;50.988;10.318;2023-02-10T01:39:49;34.00;;;20.10;;
28180;SDS011;15464;50.988;10.318;2023-02-10T01:42:15;34.75;;;20.25;;
28180;SDS011;15464;50.988;10.318;2023-02-10T01:47:09;35.65;;;21.38;;
28180;SDS011;15464;50.988;10.318;2023-02-10T01:49:41;34.35;;;21.13;;
28180;SDS011;15464;50.988;10.318;2023-02-10T01:52:16;33.00;;;21.23;;
28180;SDS011;15464;50.988;10.318;2023-02-10T01:54:48;36.20;;;20.70;;
28180;SDS011;15464;50.988;10.318;2023-02-10T01:57:19;33.50;;;21.67;;
28180;SDS011;15464;50.988;10.318;2023-02-10T01:59:46;33.38;;;21.52;;
28180;SDS011;15464;50.988;10.318;2023-02-10T02:02:13;34.65;;;21.20;;
28180;SDS011;15464;50.988;10.318;2023-02-10T02:04:52;37.70;;;20.07;;
28180;SDS011;15464;50.988;10.318;2023-02-10T02:07:22;34.60;;;21.07;;
28180;SDS011;15464;50.988;10.318;2023-02-10T02:09:51;32.90;;;21.15;;
28180;SDS011;15464;50.988;10.318;2023-02-10T02:15:02;33.38;;;21.35;;
28180;SDS011;15464;50.988;10.318;2023-02-10T02:17:48;32.53;;;20.02;;
28180;SDS011;15464;50.988;10.318;2023-02-10T02:23:40;36.20;;;21.55;;
28180;SDS011;15464;50.988;10.318;2023-02-10T02:34:00;37.13;;;22.10;;
28180;SDS011;15464;50.988;10.318;2023-02-10T02:36:30;35.78;;;22.17;;
28180;SDS011;15464;50.988;10.318;2023-02-10T02:39:02;34.92;;;22.23;;
28180;SDS011;15464;50.988;10.318;2023-02-10T02:41:31;38.60;;;22.95;;
28180;SDS011;15464;50.988;10.318;2023-02-10T02:43:59;35.67;;;21.90;;
28180;SDS011;15464;50.988;10.318;2023-02-10T02:58:01;39.22;;;23.95;;
28180;SDS011;15464;50.988;10.318;2023-02-10T03:00:37;41.42;;;24.30;;
28180;SDS011;15464;50.988;10.318;2023-02-10T03:03:07;41.17;;;25.42;;
28180;SDS011;15464;50.988;10.318;2023-02-10T03:05:35;39.03;;;24.27;;
28180;SDS011;15464;50.988;10.318;2023-02-10T03:08:02;42.67;;;26.80;;
28180;SDS011;15464;50.988;10.318;2023-02-10T03:10:28;42.83;;;25.13;;
28180;SDS011;15464;50.988;10.318;2023-02-10T03:12:55;40.65;;;24.27;;
28180;SDS011;15464;50.988;10.318;2023-02-10T03:15:22;40.47;;;24.90;;
28180;SDS011;15464;50.988;10.318;2023-02-10T03:17:48;40.97;;;26.45;;
28180;SDS011;15464;50.988;10.318;2023-02-10T03:20:15;37.92;;;24.13;;
28180;SDS011;15464;50.988;10.318;2023-02-10T03:22:42;38.00;;;24.70;;
28180;SDS011;15464;50.988;10.318;2023-02-10T03:25:09;39.95;;;25.20;;
28180;SDS011;15464;50.988;10.318;2023-02-10T03:27:36;40.97;;;25.85;;
28180;SDS011;15464;50.988;10.318;2023-02-10T03:30:03;40.22;;;25.35;;
28180;SDS011;15464;50.988;10.318;2023-02-10T03:32:31;43.08;;;26.10;;
28180;SDS011;15464;50.988;10.318;2023-02-10T03:34:58;42.60;;;27.48;;
28180;SDS011;15464;50.988;10.318;2023-02-10T03:37:24;41.00;;;26.10;;
28180;SDS011;15464;50.988;10.318;2023-02-10T03:39:51;39.28;;;24.23;;
28180;SDS011;15464;50.988;10.318;2023-02-10T03:42:18;43.85;;;27.17;;
28180;SDS011;15464;50.988;10.318;2023-02-10T03:44:44;43.28;;;26.33;;
28180;SDS011;15464;50.988;10.318;2023-02-10T03:47:11;39.53;;;25.60;;
28180;SDS011;15464;50.988;10.318;2023-02-10T03:49:38;41.72;;;27.08;;
28180;SDS011;15464;50.988;10.318;2023-02-10T03:52:04;46.03;;;26.05;;
28180;SDS011;15464;50.988;10.318;2023-02-10T03:54:31;42.28;;;25.13;;
28180;SDS011;15464;50.988;10.318;2023-02-10T03:56:58;36.85;;;24.02;;
28180;SDS011;15464;50.988;10.318;2023-02-10T03:59:24;40.55;;;26.02;;
28180;SDS011;15464;50.988;10.318;2023-02-10T04:01:51;39.35;;;25.92;;
28180;SDS011;15464;50.988;10.318;2023-02-10T04:04:18;39.45;;;24.77;;
28180;SDS011;15464;50.988;10.318;2023-02-10T04:06:45;39.20;;;24.70;;
28180;SDS011;15464;50.988;10.318;2023-02-10T04:09:12;42.78;;;25.92;;
28180;SDS011;15464;50.988;10.318;2023-02-10T04:11:38;42.75;;;26.00;;
28180;SDS011;15464;50.988;10.318;2023-02-10T04:14:05;42.63;;;25.33;;
28180;SDS011;15464;50.988;10.318;2023-02-10T04:16:32;40.08;;;25.42;;
28180;SDS011;15464;50.988;10.318;2023-02-10T04:18:59;43.40;;;27.25;;
28180;SDS011;15464;50.988;10.318;2023-02-10T04:21:26;44.92;;;26.33;;
28180;SDS011;15464;50.988;10.318;2023-02-10T04:23:53;41.42;;;26.25;;
28180;SDS011;15464;50.988;10.318;2023-02-10T04:26:19;43.10;;;26.60;;
28180;SDS011;15464;50.988;10.318;2023-02-10T04:28:46;45.75;;;26.90;;
28180;SDS011;15464;50.988;10.318;2023-02-10T04:31:14;44.28;;;26.95;;
28180;SDS011;15464;50.988;10.318;2023-02-10T04:33:41;44.40;;;28.55;;
28180;SDS011;15464;50.988;10.318;2023-02-10T04:36:08;43.50;;;27.60;;
28180;SDS011;15464;50.988;10.318;2023-02-10T04:38:35;46.90;;;27.83;;
28180;SDS011;15464;50.988;10.318;2023-02-10T04:41:01;45.13;;;27.42;;
28180;SDS011;15464;50.988;10.318;2023-02-10T04:43:31;44.28;;;27.55;;
28180;SDS011;15464;50.988;10.318;2023-02-10T04:45:58;47.50;;;28.23;;
28180;SDS011;15464;50.988;10.318;2023-02-10T04:48:25;45.30;;;27.75;;
28180;SDS011;15464;50.988;10.318;2023-02-10T04:50:51;47.90;;;29.48;;
28180;SDS011;15464;50.988;10.318;2023-02-10T04:53:19;48.50;;;29.88;;
28180;SDS011;15464;50.988;10.318;2023-02-10T04:55:46;43.92;;;27.95;;
28180;SDS011;15464;50.988;10.318;2023-02-10T04:58:13;49.53;;;28.48;;
28180;SDS011;15464;50.988;10.318;2023-02-10T05:00:40;47.92;;;28.67;;
28180;SDS011;15464;50.988;10.318;2023-02-10T05:03:07;47.45;;;29.52;;
28180;SDS011;15464;50.988;10.318;2023-02-10T05:05:33;39.88;;;26.85;;
28180;SDS011;15464;50.988;10.318;2023-02-10T05:08:01;41.60;;;26.52;;
28180;SDS011;15464;50.988;10.318;2023-02-10T05:10:27;43.65;;;26.42;;
28180;SDS011;15464;50.988;10.318;2023-02-10T05:12:54;46.17;;;27.63;;
28180;SDS011;15464;50.988;10.318;2023-02-10T05:15:21;44.42;;;26.35;;
28180;SDS011;15464;50.988;10.318;2023-02-10T05:17:47;43.58;;;27.70;;
28180;SDS011;15464;50.988;10.318;2023-02-10T05:20:14;42.80;;;28.05;;
28180;SDS011;15464;50.988;10.318;2023-02-10T05:22:41;43.63;;;26.88;;
28180;SDS011;15464;50.988;10.318;2023-02-10T05:25:08;45.20;;;29.08;;
28180;SDS011;15464;50.988;10.318;2023-02-10T05:27:35;46.33;;;31.38;;
28180;SDS011;15464;50.988;10.318;2023-02-10T05:30:03;41.83;;;27.65;;
28180;SDS011;15464;50.988;10.318;2023-02-10T05:32:31;45.30;;;29.15;;
28180;SDS011;15464;50.988;10.318;2023-02-10T05:34:57;43.50;;;28.40;;
28180;SDS011;15464;50.988;10.318;2023-02-10T05:37:24;49.65;;;30.65;;
28180;SDS011;15464;50.988;10.318;2023-02-10T05:39:50;46.72;;;30.55;;
28180;SDS011;15464;50.988;10.318;2023-02-10T05:42:17;47.67;;;30.73;;
28180;SDS011;15464;50.988;10.318;2023-02-10T05:44:44;46.90;;;30.80;;
28180;SDS011;15464;50.988;10.318;2023-02-10T05:47:10;46.47;;;29.77;;
28180;SDS011;15464;50.988;10.318;2023-02-10T05:49:37;45.08;;;29.52;;
28180;SDS011;15464;50.988;10.318;2023-02-10T05:52:04;46.65;;;29.80;;
28180;SDS011;15464;50.988;10.318;2023-02-10T05:54:30;43.15;;;28.70;;
28180;SDS011;15464;50.988;10.318;2023-02-10T05:56:57;48.58;;;30.75;;
28180;SDS011;15464;50.988;10.318;2023-02-10T05:59:24;50.15;;;30.83;;
28180;SDS011;15464;50.988;10.318;2023-02-10T06:01:51;45.33;;;29.83;;
28180;SDS011;15464;50.988;10.318;2023-02-10T06:04:17;47.65;;;31.35;;
28180;SDS011;15464;50.988;10.318;2023-02-10T06:06:44;55.20;;;30.80;;
28180;SDS011;15464;50.988;10.318;2023-02-10T06:09:11;46.28;;;28.60;;
28180;SDS011;15464;50.988;10.318;2023-02-10T06:11:38;44.83;;;28.27;;
28180;SDS011;15464;50.988;10.318;2023-02-10T06:14:04;45.28;;;29.40;;
28180;SDS011;15464;50.988;10.318;2023-02-10T06:16:31;45.15;;;28.30;;
28180;SDS011;15464;50.988;10.318;2023-02-10T06:18:58;47.13;;;30.00;;
28180;SDS011;15464;50.988;10.318;2023-02-10T06:21:25;46.00;;;29.10;;
28180;SDS011;15464;50.988;10.318;2023-02-10T06:23:52;47.08;;;31.00;;
28180;SDS011;15464;50.988;10.318;2023-02-10T06:26:18;49.47;;;29.65;;
28180;SDS011;15464;50.988;10.318;2023-02-10T06:28:45;43.50;;;28.02;;
28180;SDS011;15464;50.988;10.318;2023-02-10T06:31:12;53.30;;;31.90;;
28180;SDS011;15464;50.988;10.318;2023-02-10T06:33:39;44.20;;;29.15;;
28180;SDS011;15464;50.988;10.318;2023-02-10T06:36:06;47.00;;;29.80;;
28180;SDS011;15464;50.988;10.318;2023-02-10T06:38:34;47.85;;;30.85;;
28180;SDS011;15464;50.988;10.318;2023-02-10T06:41:02;51.90;;;30.27;;
28180;SDS011;15464;50.988;10.318;2023-02-10T06:43:29;46.35;;;29.73;;
28180;SDS011;15464;50.988;10.318;2023-02-10T06:45:56;44.40;;;28.35;;
28180;SDS011;15464;50.988;10.318;2023-02-10T06:48:23;47.85;;;31.52;;
28180;SDS011;15464;50.988;10.318;2023-02-10T06:50:50;48.28;;;31.13;;
28180;SDS011;15464;50.988;10.318;2023-02-10T06:53:16;46.50;;;28.90;;
28180;SDS011;15464;50.988;10.318;2023-02-10T06:55:43;45.97;;;30.10;;
28180;SDS011;15464;50.988;10.318;2023-02-10T06:58:10;46.58;;;29.80;;
28180;SDS011;15464;50.988;10.318;2023-02-10T07:00:37;48.28;;;30.30;;
28180;SDS011;15464;50.988;10.318;2023-02-10T07:03:04;52.35;;;33.42;;
28180;SDS011;15464;50.988;10.318;2023-02-10T07:05:30;44.45;;;29.42;;
28180;SDS011;15464;50.988;10.318;2023-02-10T07:07:57;44.58;;;28.30;;
28180;SDS011;15464;50.988;10.318;2023-02-10T07:10:29;47.10;;;29.67;;
28180;SDS011;15464;50.988;10.318;2023-02-10T07:12:58;52.90;;;32.35;;
28180;SDS011;15464;50.988;10.318;2023-02-10T07:15:25;45.92;;;29.20;;
28180;SDS011;15464;50.988;10.318;2023-02-10T07:17:52;49.35;;;29.77;;
28180;SDS011;15464;50.988;10.318;2023-02-10T07:20:18;49.38;;;30.90;;
28180;SDS011;15464;50.988;10.318;2023-02-10T07:22:46;50.15;;;30.42;;
28180;SDS011;15464;50.988;10.318;2023-02-10T07:25:12;48.78;;;31.90;;
28180;SDS011;15464;50.988;10.318;2023-02-10T07:27:39;43.95;;;30.48;;
28180;SDS011;15464;50.988;10.318;2023-02-10T07:30:06;43.55;;;27.92;;
28180;SDS011;15464;50.988;10.318;2023-02-10T07:32:33;46.92;;;31.05;;
28180;SDS011;15464;50.988;10.318;2023-02-10T07:35:00;50.03;;;30.80;;
28180;SDS011;15464;50.988;10.318;2023-02-10T07:37:27;46.55;;;29.77;;
28180;SDS011;15464;50.988;10.318;2023-02-10T07:39:53;52.33;;;31.60;;
28180;SDS011;15464;50.988;10.318;2023-02-10T07:42:20;51.78;;;30.13;;
28180;SDS011;15464;50.988;10.318;2023-02-10T07:44:47;49.75;;;31.27;;
28180;SDS011;15464;50.988;10.318;2023-02-10T07:47:14;47.15;;;31.80;;
28180;SDS011;15464;50.988;10.318;2023-02-10T07:49:40;46.00;;;29.88;;
28180;SDS011;15464;50.988;10.318;2023-02-10T07:52:07;48.53;;;31.48;;
28180;SDS011;15464;50.988;10.318;2023-02-10T07:54:34;48.25;;;30.75;;
28180;SDS011;15464;50.988;10.318;2023-02-10T07:57:00;45.38;;;27.42;;
28180;SDS011;15464;50.988;10.318;2023-02-10T07:59:27;45.13;;;30.73;;
28180;SDS011;15464;50.988;10.318;2023-02-10T08:01:53;46.58;;;30.20;;
28180;SDS011;15464;50.988;10.318;2023-02-10T08:04:20;48.28;;;31.65;;
28180;SDS011;15464;50.988;10.318;2023-02-10T08:06:47;45.95;;;29.67;;
28180;SDS011;15464;50.988;10.318;2023-02-10T08:09:14;44.28;;;28.15;;
28180;SDS011;15464;50.988;10.318;2023-02-10T08:11:43;49.47;;;32.40;;
28180;SDS011;15464;50.988;10.318;2023-02-10T08:14:10;43.55;;;26.45;;
28180;SDS011;15464;50.988;10.318;2023-02-10T08:16:37;46.33;;;29.55;;
28180;SDS011;15464;50.988;10.318;2023-02-10T08:19:03;47.42;;;31.50;;
28180;SDS011;15464;50.988;10.318;2023-02-10T08:21:30;55.05;;;32.28;;
28180;SDS011;15464;50.988;10.318;2023-02-10T08:23:57;46.40;;;30.38;;
28180;SDS011;15464;50.988;10.318;2023-02-10T08:26:23;47.88;;;31.27;;
28180;SDS011;15464;50.988;10.318;2023-02-10T08:28:51;50.95;;;32.60;;
28180;SDS011;15464;50.988;10.318;2023-02-10T08:33:47;50.88;;;31.23;;
28180;SDS011;15464;50.988;10.318;2023-02-10T08:36:15;48.85;;;30.05;;
28180;SDS011;15464;50.988;10.318;2023-02-10T08:38:44;45.95;;;30.00;;
28180;SDS011;15464;50.988;10.318;2023-02-10T08:41:11;50.63;;;32.35;;
28180;SDS011;15464;50.988;10.318;2023-02-10T08:43:38;48.28;;;31.67;;
28180;SDS011;15464;50.988;10.318;2023-02-10T08:46:04;53.28;;;32.78;;
28180;SDS011;15464;50.988;10.318;2023-02-10T08:48:32;55.40;;;34.33;;
28180;SDS011;15464;50.988;10.318;2023-02-10T08:50:59;51.78;;;31.67;;
28180;SDS011;15464;50.988;10.318;2023-02-10T08:53:27;52.65;;;33.75;;
28180;SDS011;15464;50.988;10.318;2023-02-10T08:56:05;51.38;;;32.92;;
28180;SDS011;15464;50.988;10.318;2023-02-10T08:58:33;53.60;;;32.83;;
28180;SDS011;15464;50.988;10.318;2023-02-10T09:01:00;55.75;;;34.63;;
28180;SDS011;15464;50.988;10.318;2023-02-10T09:03:28;53.80;;;33.17;;
28180;SDS011;15464;50.988;10.318;2023-02-10T09:05:55;56.53;;;33.42;;
28180;SDS011;15464;50.988;10.318;2023-02-10T09:08:22;59.30;;;35.08;;
28180;SDS011;15464;50.988;10.318;2023-02-10T09:10:48;56.47;;;33.00;;
28180;SDS011;15464;50.988;10.318;2023-02-10T09:13:16;54.80;;;33.03;;
28180;SDS011;15464;50.988;10.318;2023-02-10T09:15:42;52.17;;;34.13;;
28180;SDS011;15464;50.988;10.318;2023-02-10T09:18:09;56.92;;;34.65;;
28180;SDS011;15464;50.988;10.318;2023-02-10T09:20:36;59.00;;;35.63;;
28180;SDS011;15464;50.988;10.318;2023-02-10T09:23:03;67.45;;;33.80;;
28180;SDS011;15464;50.988;10.318;2023-02-10T09:25:30;59.38;;;35.28;;
28180;SDS011;15464;50.988;10.318;2023-02-10T09:27:57;65.35;;;35.83;;
28180;SDS011;15464;50.988;10.318;2023-02-10T09:30:25;57.50;;;34.42;;
28180;SDS011;15464;50.988;10.318;2023-02-10T09:32:52;66.10;;;36.90;;
28180;SDS011;15464;50.988;10.318;2023-02-10T09:35:20;63.08;;;36.53;;
28180;SDS011;15464;50.988;10.318;2023-02-10T09:37:47;58.88;;;35.05;;
28180;SDS011;15464;50.988;10.318;2023-02-10T09:40:18;63.38;;;36.25;;
28180;SDS011;15464;50.988;10.318;2023-02-10T09:45:58;64.47;;;36.17;;
28180;SDS011;15464;50.988;10.318;2023-02-10T09:53:57;66.88;;;38.20;;
28180;SDS011;15464;50.988;10.318;2023-02-10T09:56:24;58.08;;;34.83;;
28180;SDS011;15464;50.988;10.318;2023-02-10T09:58:55;69.20;;;39.05;;
28180;SDS011;15464;50.988;10.318;2023-02-10T10:06:46;63.60;;;36.00;;
28180;SDS011;15464;50.988;10.318;2023-02-10T10:09:23;64.65;;;35.72;;
28180;SDS011;15464;50.988;10.318;2023-02-10T10:12:00;64.68;;;35.97;;
28180;SDS011;15464;50.988;10.318;2023-02-10T10:20:13;70.60;;;39.47;;
28180;SDS011;15464;50.988;10.318;2023-02-10T10:31:01;65.70;;;37.75;;
28180;SDS011;15464;50.988;10.318;2023-02-10T10:33:39;61.53;;;37.78;;
28180;SDS011;15464;50.988;10.318;2023-02-10T10:36:33;61.65;;;36.00;;
28180;SDS011;15464;50.988;10.318;2023-02-10T10:42:24;63.85;;;37.53;;
28180;SDS011;15464;50.988;10.318;2023-02-10T10:44:58;62.13;;;36.20;;
28180;SDS011;15464;50.988;10.318;2023-02-10T10:47:36;59.20;;;36.72;;
28180;SDS011;15464;50.988;10.318;2023-02-10T10:50:16;57.60;;;34.22;;
28180;SDS011;15464;50.988;10.318;2023-02-10T10:52:46;60.67;;;37.33;;
28180;SDS011;15464;50.988;10.318;2023-02-10T10:55:20;61.25;;;36.80;;
28180;SDS011;15464;50.988;10.318;2023-02-10T10:57:51;65.80;;;37.58;;
28180;SDS011;15464;50.988;10.318;2023-02-10T11:00:23;56.75;;;34.88;;
28180;SDS011;15464;50.988;10.318;2023-02-10T11:05:36;61.33;;;36.60;;
28180;SDS011;15464;50.988;10.318;2023-02-10T11:08:04;54.08;;;33.08;;
28180;SDS011;15464;50.988;10.318;2023-02-10T11:10:37;61.38;;;36.45;;
28180;SDS011;15464;50.988;10.318;2023-02-10T11:13:20;56.63;;;35.47;;
28180;SDS011;15464;50.988;10.318;2023-02-10T11:15:49;58.13;;;34.88;;
28180;SDS011;15464;50.988;10.318;2023-02-10T11:18:36;56.80;;;35.70;;
28180;SDS011;15464;50.988;10.318;2023-02-10T11:21:07;56.33;;;33.90;;
28180;SDS011;15464;50.988;10.318;2023-02-10T11:23:52;56.00;;;34.22;;
28180;SDS011;15464;50.988;10.318;2023-02-10T11:26:21;61.63;;;37.00;;
28180;SDS011;15464;50.988;10.318;2023-02-10T11:28:50;57.38;;;34.95;;
28180;SDS011;15464;50.988;10.318;2023-02-10T11:34:02;61.90;;;36.60;;
28180;SDS011;15464;50.988;10.318;2023-02-10T11:36:41;58.80;;;36.40;;
28180;SDS011;15464;50.988;10.318;2023-02-10T11:42:09;57.95;;;35.25;;
28180;SDS011;15464;50.988;10.318;2023-02-10T11:44:59;55.67;;;35.10;;
28180;SDS011;15464;50.988;10.318;2023-02-10T11:47:41;55.17;;;35.30;;
28180;SDS011;15464;50.988;10.318;2023-02-10T11:50:19;56.47;;;34.90;;
28180;SDS011;15464;50.988;10.318;2023-02-10T11:52:49;54.40;;;34.47;;
28180;SDS011;15464;50.988;10.318;2023-02-10T11:55:16;51.90;;;32.05;;
28180;SDS011;15464;50.988;10.318;2023-02-10T11:57:56;55.33;;;34.20;;
28180;SDS011;15464;50.988;10.318;2023-02-10T12:00:52;52.47;;;32.38;;
28180;SDS011;15464;50.988;10.318;2023-02-10T12:14:45;53.65;;;33.53;;
28180;SDS011;15464;50.988;10.318;2023-02-10T12:17:37;53.45;;;34.05;;
28180;SDS011;15464;50.988;10.318;2023-02-10T12:23:29;55.38;;;33.53;;
28180;SDS011;15464;50.988;10.318;2023-02-10T12:38:29;55.38;;;33.88;;
28180;SDS011;15464;50.988;10.318;2023-02-10T12:54:48;52.60;;;33.58;;
28180;SDS011;15464;50.988;10.318;2023-02-10T13:00:08;50.25;;;31.42;;
28180;SDS011;15464;50.988;10.318;2023-02-10T13:03:02;52.95;;;30.15;;
28180;SDS011;15464;50.988;10.318;2023-02-10T13:05:32;44.95;;;29.20;;
28180;SDS011;15464;50.988;10.318;2023-02-10T13:08:05;46.97;;;31.35;;
28180;SDS011;15464;50.988;10.318;2023-02-10T13:10:54;50.25;;;31.48;;
28180;SDS011;15464;50.988;10.318;2023-02-10T13:13:26;51.20;;;34.08;;
28180;SDS011;15464;50.988;10.318;2023-02-10T13:16:10;52.03;;;34.08;;
28180;SDS011;15464;50.988;10.318;2023-02-10T13:21:29;50.13;;;33.35;;
28180;SDS011;15464;50.988;10.318;2023-02-10T13:29:25;50.80;;;31.35;;
28180;SDS011;15464;50.988;10.318;2023-02-10T13:34:53;44.10;;;29.38;;
28180;SDS011;15464;50.988;10.318;2023-02-10T13:37:40;48.75;;;33.50;;
28180;SDS011;15464;50.988;10.318;2023-02-10T13:42:50;47.50;;;31.77;;
28180;SDS011;15464;50.988;10.318;2023-02-10T13:45:23;46.55;;;30.63;;
28180;SDS011;15464;50.988;10.318;2023-02-10T13:47:54;42.53;;;30.00;;
28180;SDS011;15464;50.988;10.318;2023-02-10T13:53:23;44.05;;;30.35;;
28180;SDS011;15464;50.988;10.318;2023-02-10T13:58:48;45.55;;;30.27;;
28180;SDS011;15464;50.988;10.318;2023-02-10T14:06:45;47.47;;;30.27;;
28180;SDS011;15464;50.988;10.318;2023-02-10T14:11:56;52.15;;;31.00;;
28180;SDS011;15464;50.988;10.318;2023-02-10T14:14:29;44.10;;;30.67;;
28180;SDS011;15464;50.988;10.318;2023-02-10T14:17:07;50.03;;;32.65;;
28180;SDS011;15464;50.988;10.318;2023-02-10T14:19:39;44.80;;;29.85;;
28180;SDS011;15464;50.988;10.318;2023-02-10T14:22:53;47.25;;;30.88;;
28180;SDS011;15464;50.988;10.318;2023-02-10T14:28:11;53.05;;;32.15;;
28180;SDS011;15464;50.988;10.318;2023-02-10T14:30:50;48.30;;;30.00;;
28180;SDS011;15464;50.988;10.318;2023-02-10T14:33:21;50.80;;;32.35;;
28180;SDS011;15464;50.988;10.318;2023-02-10T14:35:53;55.75;;;32.00;;
28180;SDS011;15464;50.988;10.318;2023-02-10T14:38:23;55.22;;;33.38;;
28180;SDS011;15464;50.988;10.318;2023-02-10T14:40:52;49.33;;;30.92;;
28180;SDS011;15464;50.988;10.318;2023-02-10T14:43:22;57.30;;;34.00;;
28180;SDS011;15464;50.988;10.318;2023-02-10T14:45:50;52.67;;;32.75;;
28180;SDS011;15464;50.988;10.318;2023-02-10T14:48:18;53.55;;;31.10;;
28180;SDS011;15464;50.988;10.318;2023-02-10T14:51:02;53.30;;;33.00;;
28180;SDS011;15464;50.988;10.318;2023-02-10T14:53:44;53.63;;;31.35;;
28180;SDS011;15464;50.988;10.318;2023-02-10T14:56:15;56.35;;;33.28;;
28180;SDS011;15464;50.988;10.318;2023-02-10T14:58:44;56.75;;;34.83;;
28180;SDS011;15464;50.988;10.318;2023-02-10T15:01:14;52.38;;;31.02;;
28180;SDS011;15464;50.988;10.318;2023-02-10T15:03:59;53.42;;;33.30;;
28180;SDS011;15464;50.988;10.318;2023-02-10T15:06:29;54.38;;;33.55;;
28180;SDS011;15464;50.988;10.318;2023-02-10T15:08:58;55.88;;;33.42;;
28180;SDS011;15464;50.988;10.318;2023-02-10T15:11:45;60.17;;;32.53;;
28180;SDS011;15464;50.988;10.318;2023-02-10T15:14:35;55.28;;;33.67;;
28180;SDS011;15464;50.988;10.318;2023-02-10T15:17:15;56.20;;;32.95;;
28180;SDS011;15464;50.988;10.318;2023-02-10T15:19:58;53.70;;;31.75;;
28180;SDS011;15464;50.988;10.318;2023-02-10T15:22:48;52.10;;;32.47;;
28180;SDS011;15464;50.988;10.318;2023-02-10T15:25:41;51.38;;;31.27;;
28180;SDS011;15464;50.988;10.318;2023-02-10T15:33:20;52.42;;;30.92;;
28180;SDS011;15464;50.988;10.318;2023-02-10T15:41:18;52.95;;;29.92;;
28180;SDS011;15464;50.988;10.318;2023-02-10T15:44:00;49.33;;;29.15;;
28180;SDS011;15464;50.988;10.318;2023-02-10T15:46:29;52.67;;;30.48;;
28180;SDS011;15464;50.988;10.318;2023-02-10T15:49:13;50.13;;;29.25;;
28180;SDS011;15464;50.988;10.318;2023-02-10T15:51:42;47.97;;;27.88;;
28180;SDS011;15464;50.988;10.318;2023-02-10T15:54:18;49.13;;;29.23;;
28180;SDS011;15464;50.988;10.318;2023-02-10T15:57:00;44.85;;;28.15;;
28180;SDS011;15464;50.988;10.318;2023-02-10T15:59:29;44.33;;;26.77;;
28180;SDS011;15464;50.988;10.318;2023-02-10T16:01:57;56.00;;;29.40;;
28180;SDS011;15464;50.988;10.318;2023-02-10T16:06:59;50.03;;;27.25;;
28180;SDS011;15464;50.988;10.318;2023-02-10T16:09:28;45.67;;;27.58;;
28180;SDS011;15464;50.988;10.318;2023-02-10T16:11:57;47.13;;;27.42;;
28180;SDS011;15464;50.988;10.318;2023-02-10T16:14:26;43.17;;;26.40;;
28180;SDS011;15464;50.988;10.318;2023-02-10T16:16:55;44.00;;;26.80;;
28180;SDS011;15464;50.988;10.318;2023-02-10T16:19:25;48.45;;;28.35;;
28180;SDS011;15464;50.988;10.318;2023-02-10T16:21:54;44.13;;;25.75;;
28180;SDS011;15464;50.988;10.318;2023-02-10T16:24:25;42.17;;;26.00;;
28180;SDS011;15464;50.988;10.318;2023-02-10T16:26:54;43.28;;;25.90;;
28180;SDS011;15464;50.988;10.318;2023-02-10T16:29:23;45.63;;;25.90;;
28180;SDS011;15464;50.988;10.318;2023-02-10T16:31:52;42.83;;;25.00;;
28180;SDS011;15464;50.988;10.318;2023-02-10T16:34:19;45.88;;;26.08;;
28180;SDS011;15464;50.988;10.318;2023-02-10T16:36:45;41.97;;;25.25;;
28180;SDS011;15464;50.988;10.318;2023-02-10T16:39:19;39.25;;;24.33;;
28180;SDS011;15464;50.988;10.318;2023-02-10T16:41:48;44.72;;;25.55;;
28180;SDS011;15464;50.988;10.318;2023-02-10T16:44:17;46.78;;;24.58;;
28180;SDS011;15464;50.988;10.318;2023-02-10T16:46:44;38.83;;;24.98;;
28180;SDS011;15464;50.988;10.318;2023-02-10T16:49:16;38.70;;;23.80;;
28180;SDS011;15464;50.988;10.318;2023-02-10T16:51:43;36.13;;;23.00;;
28180;SDS011;15464;50.988;10.318;2023-02-10T16:54:10;39.90;;;23.48;;
28180;SDS011;15464;50.988;10.318;2023-02-10T16:56:38;42.92;;;23.85;;
28180;SDS011;15464;50.988;10.318;2023-02-10T16:59:18;37.47;;;23.15;;
28180;SDS011;15464;50.988;10.318;2023-02-10T17:01:45;36.83;;;22.65;;